Data for 05/06/2006

Time Sea-Level Adjusted Pressure Absolute Pressure Temperature Relative Humidity Dew Point   
(mb) (inHg) (mb) (inHg) (C) (F) (%) (C) (F)
00:05 1014 29.94 843 24.89 7.5 45.6 32 -8.2 17.3
00:10 1014 29.94 843 24.89 7.5 45.5 33 -7.6 18.3
00:15 1014 29.94 843 24.89 7.4 45.4 34 -7.3 18.8
00:20 1014 29.94 843 24.89 7.4 45.3 35 -7 19.4
00:25 1014 29.94 843 24.89 7.4 45.4 35 -6.9 19.5
00:30 1014 29.94 843 24.89 7.4 45.3 35 -7.3 18.9
00:35 1014 29.94 843 24.89 7.4 45.2 35 -7.3 18.9
00:40 1014 29.94 843 24.89 7.4 45.3 34 -7.5 18.4
00:45 1014 29.94 843 24.89 7.9 46.1 31 -8.1 17.4
00:50 1014 29.94 843 24.89 8.1 46.6 31 -8 17.7
00:55 1014 29.94 843 24.89 8.1 46.6 32 -7.6 18.3
01:00 1014 29.94 843 24.89 8 46.3 32 -7.8 17.9
01:05 1014 29.94 843 24.89 7.8 46 31 -8.2 17.2
01:10 1014 29.94 843 24.89 7.8 46 33 -7.6 18.3
01:15 1014 29.94 843 24.89 7.7 45.8 33 -7.6 18.3
01:20 1014 29.94 843 24.89 7.9 46.2 32 -7.7 18.2
01:25 1014 29.94 843 24.89 8 46.3 31 -8.2 17.2
01:30 1014 29.94 843 24.89 8.1 46.6 32 -7.7 18.1
01:35 1014 29.94 843 24.89 7.9 46.1 32 -7.9 17.7
01:40 1014 29.94 843 24.89 7.7 45.8 33 -7.8 18
01:45 1014 29.94 843 24.89 7.7 45.9 31 -8.4 16.8
01:50 1014 29.94 843 24.89 8 46.3 32 -7.9 17.7
01:55 1014 29.94 843 24.89 7.9 46.2 31 -8.1 17.4
02:00 1014 29.94 843 24.89 7.6 45.6 33 -7.7 18.1
02:05 1014 29.94 843 24.89 7.1 44.8 33 -8.1 17.3
02:10 1014 29.94 843 24.89 7.2 44.9 32 -8.4 16.9
02:15 1014 29.94 843 24.89 7.3 45.1 33 -8 17.7
02:20 1014 29.94 843 24.89 7 44.6 33 -8 17.6
02:25 1014 29.94 843 24.89 6.7 44 35 -7.9 17.7
02:30 1014 29.94 843 24.89 6.4 43.6 34 -8.2 17.2
02:35 1014 29.94 843 24.89 6.4 43.6 34 -8.5 16.7
02:40 1014 29.94 843 24.89 6.6 44 34 -8.1 17.5
02:45 1014 29.94 843 24.89 6.3 43.4 36 -7.6 18.2
02:50 1014 29.94 843 24.89 6.2 43.2 38 -7.2 19.1
02:55 1014 29.94 843 24.89 5.9 42.6 36 -8 17.6
03:00 1014 29.94 843 24.89 5.6 42.1 39 -7.2 19.1
03:05 1014 29.94 843 24.89 5.5 42 38 -7.8 18
03:10 1014 29.94 843 24.89 5.4 41.8 39 -7.4 18.6
03:15 1014 29.94 843 24.89 5.1 41.2 40 -7.4 18.8
03:20 1014 29.94 843 24.89 5.1 41.1 38 -8 17.7
03:25 1014 29.94 843 24.89 5.2 41.3 40 -7.5 18.6
03:30 1014 29.94 843 24.89 4.9 40.8 41 -7.2 19
03:35 1014 29.94 843 24.89 4.5 40.1 42 -7.3 18.9
03:40 1014 29.94 843 24.89 4.5 40.1 40 -7.8 17.9
03:45 1014 29.94 843 24.89 4.7 40.4 41 -7.6 18.3
03:50 1014 29.94 843 24.89 4.4 39.9 42 -7.4 18.7
03:55 1014 29.94 843 24.89 4.3 39.8 42 -7.6 18.3
04:00 1014 29.94 843 24.89 4.8 40.7 38 -8.2 17.2
04:05 1014 29.94 843 24.89 5.2 41.3 39 -7.6 18.3
04:10 1014 29.94 843 24.89 5.1 41.2 38 -8.2 17.2
04:15 1014 29.94 843 24.89 5.3 41.6 37 -8.1 17.4
04:20 1014 29.94 843 24.89 5.1 41.2 37 -8.6 16.6
04:25 1014 29.94 843 24.89 5.2 41.3 38 -7.9 17.7
04:30 1014 29.94 843 24.89 5.2 41.3 37 -8.4 16.9
04:35 1014 29.94 843 24.89 5.1 41.2 39 -7.7 18.2
04:40 1014 29.94 843 24.89 4.6 40.4 40 -7.7 18.1
04:45 1014 29.94 843 24.89 4.7 40.4 39 -8.1 17.4
04:50 1014 29.94 843 24.89 4.6 40.2 40 -7.8 17.9
04:55 1014 29.94 843 24.89 4.2 39.6 41 -7.8 17.9
05:00 1014 29.94 843 24.89 4.2 39.6 40 -8.3 17.1
05:05 1014 29.94 843 24.89 4.5 40 40 -8 17.6
05:10 1014 29.94 843 24.89 4.7 40.4 38 -8.4 16.9
05:15 1014 29.94 843 24.89 4.2 39.6 43 -7.4 18.7
05:20 1014 29.94 843 24.89 3.6 38.6 45 -7.3 18.8
05:25 1014 29.94 843 24.89 3.5 38.3 44 -7.5 18.5
05:30 1014 29.94 843 24.89 3.6 38.5 45 -7.4 18.8
05:35 1014 29.94 843 24.89 3.7 38.7 43 -7.9 17.9
05:40 1014 29.94 843 24.89 4.1 39.5 41 -7.9 17.8
05:45 1014 29.94 843 24.89 4.3 39.8 41 -7.6 18.2
05:50 1014 29.94 843 24.89 4 39.1 44 -7.3 18.8
05:55 1014 29.94 844 24.92 3.8 38.8 44 -7.4 18.7
06:00 1014 29.94 844 24.92 3.6 38.4 45 -7.2 19.1
06:05 1014 29.94 844 24.92 3.6 38.4 44 -7.5 18.5
06:10 1014 29.94 844 24.92 3.9 39 43 -7.6 18.2
06:15 1014 29.94 844 24.92 4.3 39.8 40 -8 17.6
06:20 1014 29.94 844 24.92 4.8 40.6 39 -8.2 17.3
06:25 1015 29.97 844 24.92 5.3 41.5 38 -8.1 17.5
06:30 1015 29.97 844 24.92 5.5 41.8 39 -7.4 18.7
06:35 1015 29.97 844 24.92 4.5 40.1 43 -7 19.5
06:40 1015 29.97 844 24.92 4.3 39.8 43 -7.1 19.2
06:45 1015 29.97 844 24.92 3.6 38.5 49 -6.1 21
06:50 1015 29.97 844 24.92 3.3 38 46 -7.3 18.9
06:55 1015 29.97 844 24.92 3.9 39 43 -7.6 18.3
07:00 1015 29.97 844 24.92 4.2 39.5 43 -7.2 19
07:05 1015 29.97 844 24.92 4.2 39.5 44 -7.1 19.3
07:10 1015 29.97 844 24.92 4.5 40.1 42 -7.3 18.9
07:15 1015 29.97 844 24.92 5.2 41.3 41 -7.1 19.2
07:20 1015 29.97 844 24.92 5.5 41.9 41 -6.8 19.8
07:25 1015 29.97 844 24.92 5.9 42.5 38 -7.3 18.9
07:30 1015 29.97 844 24.92 6.3 43.4 39 -6.6 20
07:35 1015 29.97 844 24.92 6.5 43.6 40 -6.3 20.7
07:40 1015 29.97 844 24.92 6.6 43.8 40 -6.1 21.1
07:45 1015 29.97 844 24.92 6.9 44.4 39 -6 21.3
07:50 1015 29.97 844 24.92 7.2 45 38 -6.1 21
07:55 1015 29.97 844 24.92 7.6 45.6 38 -5.9 21.4
08:00 1015 29.97 844 24.92 7.9 46.2 37 -5.9 21.4
08:05 1015 29.97 844 24.92 8.4 47.2 35 -6.1 21.1
08:10 1015 29.97 844 24.92 8.7 47.6 35 -5.9 21.4
08:15 1015 29.97 844 24.92 8.7 47.7 36 -5.4 22.3
08:20 1015 29.97 844 24.92 9 48.2 35 -5.6 21.9
08:25 1015 29.97 844 24.92 8.9 48.1 37 -4.8 23.4
08:30 1015 29.97 844 24.92 9.6 49.2 34 -5.3 22.4
08:35 1015 29.97 844 24.92 10.5 50.9 31 -5.8 21.6
08:40 1015 29.97 844 24.92 11.1 52 31 -5.5 22.1
08:45 1015 29.97 844 24.92 11.4 52.5 30 -5.4 22.2
08:50 1015 29.97 844 24.92 12 53.7 28 -5.9 21.4
08:55 1015 29.97 844 24.92 12.5 54.4 28 -5.7 21.7
09:00 1014 29.94 844 24.92 12.9 55.1 27 -5.9 21.4
09:05 1014 29.94 844 24.92 13.5 56.3 26 -5.7 21.7
09:10 1014 29.94 844 24.92 14.3 57.8 23 -6.5 20.3
09:15 1014 29.94 844 24.92 14.6 58.3 22 -7.1 19.2
09:20 1014 29.94 843 24.89 14.6 58.3 21 -7.1 19.1
09:25 1014 29.94 843 24.89 14.5 58 23 -6.5 20.3
09:30 1014 29.94 843 24.89 14.4 57.9 22 -6.8 19.7
09:35 1014 29.94 843 24.89 14.8 58.7 22 -6.5 20.3
09:40 1014 29.94 843 24.89 14.9 58.9 22 -6.6 20.2
09:45 1014 29.94 843 24.89 15.4 59.8 19 -8.3 17
09:50 1014 29.94 843 24.89 15.9 60.6 19 -7.8 18
09:55 1014 29.94 843 24.89 15.8 60.4 19 -7.6 18.3
10:00 1014 29.94 843 24.89 15.7 60.2 20 -7.1 19.1
10:05 1014 29.94 843 24.89 16.5 61.8 18 -7.8 18
10:10 1014 29.94 843 24.89 16.9 62.5 19 -7 19.4
10:15 1014 29.94 843 24.89 17.1 62.7 18 -7.4 18.8
10:20 1014 29.94 843 24.89 17.7 63.8 16 -8.1 17.3
10:25 1014 29.94 843 24.89 17.9 64.2 17 -7.2 19.1
10:30 1014 29.94 843 24.89 18.1 64.7 17 -7 19.5
10:35 1014 29.94 843 24.89 18.7 65.6 17 -7.1 19.2
10:40 1014 29.94 843 24.89 18 64.4 19 -5.9 21.4
10:45 1014 29.94 843 24.89 18.3 64.9 18 -6.3 20.6
10:50 1014 29.94 843 24.89 18.3 64.9 18 -6.3 20.7
10:55 1014 29.94 843 24.89 19 66.2 16 -7.6 18.3
11:00 1014 29.94 843 24.89 18.7 65.6 18 -6.2 20.9
11:05 1013 29.91 843 24.89 18.3 64.9 17 -7.1 19.3
11:10 1013 29.91 843 24.89 18.7 65.6 17 -6.7 20
11:15 1013 29.91 843 24.89 19.3 66.8 15 -7.9 17.8
11:20 1013 29.91 843 24.89 19.5 67.2 15 -7.9 17.7
11:25 1013 29.91 843 24.89 18.9 66 15 -7.9 17.8
11:30 1013 29.91 843 24.89 19.2 66.6 16 -7.4 18.7
11:35 1013 29.91 842 24.86 19.2 66.6 16 -7.2 19.1
11:40 1013 29.91 842 24.86 19.5 67.1 18 -5.5 22
11:45 1013 29.91 842 24.86 19.3 66.7 16 -6.7 19.9
11:50 1013 29.91 842 24.86 19.8 67.6 16 -6.6 20.1
11:55 1013 29.91 842 24.86 19.4 66.9 16 -6.8 19.8
12:00 1013 29.91 842 24.86 19.3 66.7 17 -6 21.2
12:05 1013 29.91 842 24.86 20.1 68.1 17 -5.6 21.9
12:10 1013 29.91 842 24.86 19.8 67.6 16 -6.9 19.6
12:15 1013 29.91 842 24.86 19.3 66.8 18 -5.2 22.6
12:20 1013 29.91 842 24.86 19.5 67.2 16 -6.9 19.5
12:25 1013 29.91 842 24.86 18.9 65.9 17 -6.6 20.1
12:30 1013 29.91 842 24.86 19 66.2 18 -5.8 21.5
12:35 1013 29.91 842 24.86 19.3 66.7 18 -5.7 21.7
12:40 1013 29.91 842 24.86 20.1 68.2 16 -6.3 20.6
12:45 1013 29.91 842 24.86 20.6 69.1 15 -6.4 20.5
12:50 1013 29.91 842 24.86 20.5 68.8 17 -5.3 22.5
12:55 1013 29.91 842 24.86 19.5 67.1 18 -5.2 22.6
13:00 1013 29.91 842 24.86 19.9 67.8 17 -6 21.2
13:05 1013 29.91 842 24.86 20.9 69.6 16 -5.6 21.8
13:10 1012 29.88 842 24.86 20.7 69.3 17 -5.1 22.7
13:15 1012 29.88 842 24.86 20.6 69.1 16 -5.7 21.8
13:20 1012 29.88 841 24.83 20.6 69 17 -4.8 23.3
13:25 1012 29.88 841 24.83 20.2 68.3 17 -5.6 21.9
13:30 1012 29.88 841 24.83 20.4 68.7 17 -5.4 22.2
13:35 1012 29.88 841 24.83 20.8 69.5 18 -4.1 24.7
13:40 1012 29.88 841 24.83 21.4 70.6 16 -5.2 22.7
13:45 1012 29.88 841 24.83 20.7 69.3 17 -4.8 23.4
13:50 1012 29.88 841 24.83 20.8 69.4 16 -5.7 21.7
13:55 1012 29.88 841 24.83 21.2 70.1 16 -5.7 21.7
14:00 1012 29.88 841 24.83 20.9 69.6 18 -4.2 24.5
14:05 1012 29.88 841 24.83 21.3 70.3 16 -5.6 21.9
14:10 1012 29.88 841 24.83 20.5 68.9 17 -5.2 22.6
14:15 1012 29.88 841 24.83 19.5 67.1 18 -5.5 22.2
14:20 1012 29.88 841 24.83 19.5 67.2 18 -5.5 22.1
14:25 1011 29.85 841 24.83 19.1 66.3 18 -5.6 22
14:30 1011 29.85 841 24.83 19.1 66.4 19 -5.1 22.8
14:35 1011 29.85 841 24.83 19.8 67.6 19 -4.4 24.1
14:40 1011 29.85 841 24.83 21 69.7 19 -3.2 26.2
14:45 1011 29.85 841 24.83 21.6 71 16 -5 23
14:50 1011 29.85 840 24.81 22 71.5 17 -4 24.8
14:55 1011 29.85 840 24.81 21.8 71.3 17 -3.9 25
15:00 1011 29.85 840 24.81 21.2 70.1 17 -4.9 23.2
15:05 1011 29.85 840 24.81 20.5 68.9 18 -4.8 23.3
15:10 1011 29.85 840 24.81 20.5 68.8 17 -5.3 22.4
15:15 1011 29.85 840 24.81 21.1 70 17 -5 22.9
15:20 1011 29.85 840 24.81 20.7 69.2 18 -4.7 23.5
15:25 1011 29.85 840 24.81 19.4 67 19 -4.8 23.4
15:30 1011 29.85 840 24.81 19.2 66.6 19 -4.7 23.6
15:35 1011 29.85 840 24.81 20.1 68.2 19 -4.4 24
15:40 1011 29.85 840 24.81 20.7 69.3 16 -6 21.2
15:45 1011 29.85 840 24.81 20.9 69.7 17 -5.2 22.7
15:50 1011 29.85 840 24.81 21.2 70.2 16 -5.5 22
15:55 1011 29.85 840 24.81 20.8 69.4 16 -5.6 21.8
16:00 1011 29.85 840 24.81 20.2 68.3 19 -4.3 24.2
16:05 1011 29.85 840 24.81 19.9 67.9 18 -4.8 23.3
16:10 1011 29.85 840 24.81 20.1 68.2 17 -5.9 21.3
16:15 1011 29.85 840 24.81 20.7 69.2 15 -6.4 20.5
16:20 1011 29.85 840 24.81 20.7 69.3 15 -6.3 20.6
16:25 1011 29.85 840 24.81 20.2 68.4 16 -6.3 20.6
16:30 1011 29.85 840 24.81 19.9 67.9 16 -6.9 19.6
16:35 1011 29.85 840 24.81 19.6 67.3 15 -7.5 18.5
16:40 1011 29.85 840 24.81 19.3 66.7 18 -5.7 21.8
16:45 1011 29.85 840 24.81 19.6 67.3 17 -6.1 20.9
16:50 1010 29.83 840 24.81 19.6 67.2 18 -5.2 22.6
16:55 1010 29.83 840 24.81 19.5 67.1 16 -7.2 19
17:00 1010 29.83 840 24.81 19.4 67 16 -6.8 19.8
17:05 1010 29.83 839 24.78 19.2 66.6 18 -5.2 22.6
17:10 1010 29.83 839 24.78 19.1 66.3 19 -4.7 23.5
17:15 1010 29.83 839 24.78 19.1 66.4 19 -4.6 23.7
17:20 1010 29.83 839 24.78 19.4 66.9 19 -4.8 23.4
17:25 1010 29.83 839 24.78 19.3 66.7 19 -4.8 23.3
17:30 1010 29.83 839 24.78 19.2 66.5 20 -4.3 24.2
17:35 1010 29.83 839 24.78 18.7 65.6 22 -3.5 25.7
17:40 1010 29.83 839 24.78 18.5 65.2 21 -4 24.8
17:45 1010 29.83 840 24.81 18.5 65.2 20 -4.6 23.8
17:50 1010 29.83 840 24.81 18.3 64.9 21 -4.1 24.6
17:55 1010 29.83 839 24.78 17.8 64.1 22 -3.9 25
18:00 1010 29.83 840 24.81 17.6 63.8 22 -4.2 24.4
18:05 1010 29.83 840 24.81 17.7 63.9 22 -4.1 24.6
18:10 1010 29.83 840 24.81 17.8 64 23 -3.4 25.9
18:15 1011 29.85 840 24.81 17.7 63.9 24 -3.2 26.2
18:20 1010 29.83 840 24.81 17.5 63.5 24 -3 26.5
18:25 1010 29.83 840 24.81 17.5 63.5 25 -2.6 27.3
18:30 1010 29.83 840 24.81 17.6 63.6 25 -2.5 27.5
18:35 1010 29.83 840 24.81 17.7 63.8 24 -3 26.6
18:40 1010 29.83 840 24.81 17.7 63.8 25 -2.6 27.3
18:45 1010 29.83 840 24.81 17.5 63.6 25 -2.8 27
18:50 1010 29.83 840 24.81 17.4 63.2 24 -3.1 26.4
18:55 1010 29.83 840 24.81 17.4 63.3 22 -4.2 24.5
19:00 1010 29.83 840 24.81 17.5 63.4 23 -3.8 25.2
19:05 1011 29.85 840 24.81 17.3 63.1 24 -3.2 26.3
19:10 1011 29.85 840 24.81 17.4 63.3 26 -2 28.4
19:15 1011 29.85 840 24.81 17.4 63.2 24 -3.2 26.2
19:20 1011 29.85 840 24.81 16.9 62.3 26 -2.8 26.9
19:25 1011 29.85 840 24.81 16.5 61.7 28 -1.8 28.7
19:30 1011 29.85 840 24.81 16.1 61 30 -1.6 29.2
19:35 1011 29.85 840 24.81 15.9 60.6 31 -1.3 29.7
19:40 1011 29.85 840 24.81 15.8 60.4 31 -1.3 29.7
19:45 1011 29.85 841 24.83 15.8 60.4 31 -1.2 29.8
19:50 1012 29.88 841 24.83 15.6 60.1 31 -1.3 29.7
19:55 1012 29.88 841 24.83 15.4 59.7 32 -1 30.3
20:00 1012 29.88 841 24.83 15.1 59.1 35 -0.2 31.7
20:05 1012 29.88 841 24.83 14.2 57.5 39 0.6 33
20:10 1012 29.88 841 24.83 13.7 56.6 42 1.1 34
20:15 1012 29.88 842 24.86 13.5 56.3 44 1.5 34.8
20:20 1012 29.88 842 24.86 13.5 56.3 42 0.9 33.6
20:25 1012 29.88 842 24.86 13.7 56.6 41 0.9 33.6
20:30 1013 29.91 842 24.86 13.8 56.8 43 1.5 34.6
20:35 1013 29.91 842 24.86 13.8 56.8 43 1.4 34.6
20:40 1013 29.91 842 24.86 13.8 56.8 44 1.7 35
20:45 1013 29.91 842 24.86 13.8 56.8 42 1.2 34.1
20:50 1013 29.91 842 24.86 13.6 56.5 43 1.3 34.3
20:55 1013 29.91 842 24.86 13.3 55.9 42 0.7 33.2
21:00 1013 29.91 842 24.86 13.4 56.1 42 0.7 33.3
21:05 1013 29.91 842 24.86 12.9 55.3 48 2.2 36
21:10 1013 29.91 842 24.86 12.5 54.4 48 1.8 35.3
21:15 1013 29.91 842 24.86 12.5 54.4 48 1.8 35.2
21:20 1013 29.91 842 24.86 12.3 54.2 49 1.8 35.3
21:25 1013 29.91 842 24.86 12.1 53.8 50 2 35.5
21:30 1013 29.91 842 24.86 12 53.5 50 1.9 35.5
21:35 1013 29.91 842 24.86 11.9 53.4 50 1.7 35.1
21:40 1013 29.91 842 24.86 11.9 53.3 50 1.7 35.1
21:45 1013 29.91 842 24.86 11.7 53.1 51 1.9 35.3
21:50 1013 29.91 842 24.86 11.7 53.1 50 1.7 35
21:55 1013 29.91 842 24.86 11.7 53.1 50 1.7 35.1
22:00 1013 29.91 842 24.86 11.8 53.3 50 1.8 35.2
22:05 1013 29.91 842 24.86 12 53.5 54 3.1 37.5
22:10 1013 29.91 842 24.86 11.7 53.1 53 2.6 36.6
22:15 1013 29.91 842 24.86 12 53.5 49 1.8 35.2
22:20 1013 29.91 842 24.86 12.2 53.9 49 1.7 35.1
22:25 1013 29.91 842 24.86 12.4 54.3 49 2 35.7
22:30 1013 29.91 842 24.86 12.3 54.2 50 2.1 35.9
22:35 1013 29.91 842 24.86 12.3 54.1 48 1.7 35
22:40 1013 29.91 842 24.86 12.4 54.3 48 1.8 35.3
22:45 1013 29.91 842 24.86 12.5 54.4 48 1.8 35.2
22:50 1013 29.91 842 24.86 12.5 54.4 48 1.7 35.1
22:55 1013 29.91 842 24.86 12.3 54.1 48 1.8 35.2
23:00 1013 29.91 842 24.86 12.1 53.7 50 2 35.5
23:05 1012 29.88 842 24.86 12 53.6 50 2.1 35.7
23:10 1013 29.91 842 24.86 11.6 52.9 52 2.1 35.7
23:15 1013 29.91 842 24.86 11.5 52.6 52 2 35.6
23:20 1013 29.91 842 24.86 11.5 52.6 52 2.1 35.8
23:25 1013 29.91 842 24.86 11.2 52.1 54 2.2 36
23:30 1013 29.91 842 24.86 11 51.8 54 2 35.6
23:35 1013 29.91 842 24.86 11 51.9 54 2.1 35.9
23:40 1013 29.91 842 24.86 10.8 51.4 56 2.5 36.5
23:45 1013 29.91 842 24.86 10.6 51.1 57 2.5 36.5
23:50 1013 29.91 842 24.86 10.5 51 56 2.2 35.9
23:55 1013 29.91 842 24.86 10.8 51.4 53 1.6 34.8
24:00 1013 29.91 842 24.86 11.1 52 52 1.6 34.9